createdAt,value
2023-04-18T00:00:56.643Z,100.00
2023-04-18T00:05:06.013Z,100.00
2023-04-18T00:09:11.486Z,100.00
2023-04-18T00:13:14.810Z,100.00
2023-04-18T00:17:16.168Z,100.00
2023-04-18T00:21:32.626Z,100.00
2023-04-18T00:25:47.443Z,100.00
2023-04-18T00:29:48.299Z,100.00
2023-04-18T00:33:49.647Z,100.00
2023-04-18T00:37:53.318Z,100.00
2023-04-18T00:41:53.950Z,100.00
2023-04-18T00:45:54.225Z,100.00
2023-04-18T00:49:56.268Z,100.00
2023-04-18T00:54:00.416Z,100.00
2023-04-18T00:58:01.973Z,100.00
2023-04-18T01:02:09.742Z,100.00
2023-04-18T01:06:11.271Z,100.00
2023-04-18T01:10:19.701Z,100.00
2023-04-18T01:14:25.728Z,100.00
2023-04-18T01:18:31.478Z,100.00
2023-04-18T01:22:46.363Z,100.00
2023-04-18T01:26:50.381Z,100.00
2023-04-18T01:31:12.144Z,100.00
2023-04-18T01:35:33.892Z,100.00
2023-04-18T01:40:05.059Z,100.00
2023-04-18T01:44:43.351Z,100.00
2023-04-18T01:54:25.461Z,100.00
2023-04-18T01:58:34.675Z,100.00
2023-04-18T02:03:22.828Z,100.00
2023-04-18T02:07:37.082Z,100.00
2023-04-18T02:12:04.455Z,100.00
2023-04-18T02:16:34.594Z,100.00
2023-04-18T02:20:49.852Z,100.00
2023-04-18T02:25:04.483Z,100.00
2023-04-18T02:29:31.809Z,100.00
2023-04-18T02:38:10.401Z,100.00
2023-04-18T02:42:37.221Z,100.00
2023-04-18T02:46:37.747Z,100.00
2023-04-18T02:50:40.096Z,100.00
2023-04-18T02:54:47.133Z,100.00
2023-04-18T02:58:53.387Z,100.00
2023-04-18T03:07:55.081Z,100.00
2023-04-18T03:12:06.481Z,100.00
2023-04-18T03:16:17.466Z,100.00
2023-04-18T03:20:23.145Z,100.00
2023-04-18T03:24:33.074Z,100.00
2023-04-18T03:28:40.119Z,100.00
2023-04-18T03:32:45.571Z,100.00
2023-04-18T03:37:04.863Z,100.00
2023-04-18T03:41:15.292Z,100.00
2023-04-18T03:45:21.070Z,100.00
2023-04-18T03:49:23.012Z,100.00
2023-04-18T03:53:31.034Z,100.00
2023-04-18T03:57:36.764Z,100.00
2023-04-18T04:01:46.932Z,100.00
2023-04-18T04:05:59.543Z,100.00
2023-04-18T04:10:02.646Z,100.00
2023-04-18T04:14:08.845Z,100.00
2023-04-18T04:18:17.202Z,100.00
2023-04-18T04:22:19.889Z,100.00
2023-04-18T04:26:23.516Z,100.00
2023-04-18T04:30:28.971Z,100.00
2023-04-18T04:34:35.939Z,100.00
2023-04-18T04:38:44.980Z,100.00
2023-04-18T04:42:52.075Z,100.00
2023-04-18T04:47:04.999Z,100.00
2023-04-18T04:51:16.595Z,100.00
2023-04-18T04:55:30.268Z,100.00
2023-04-18T04:59:31.604Z,100.00
2023-04-18T05:03:46.443Z,100.00
2023-04-18T05:08:04.165Z,100.00
2023-04-18T05:12:18.409Z,100.00
2023-04-18T05:16:33.165Z,100.00
2023-04-18T05:20:53.627Z,100.00
2023-04-18T05:25:16.391Z,100.00
2023-04-18T05:29:47.499Z,100.00
2023-04-18T05:34:11.479Z,100.00
2023-04-18T05:38:16.002Z,100.00
2023-04-18T05:42:59.278Z,100.00
2023-04-18T05:47:12.393Z,100.00
2023-04-18T05:52:03.394Z,100.00
2023-04-18T05:56:22.567Z,100.00
2023-04-18T06:00:34.406Z,100.00
2023-04-18T06:05:08.322Z,100.00
2023-04-18T06:09:25.856Z,100.00
2023-04-18T06:13:34.825Z,100.00
2023-04-18T06:17:46.567Z,100.00
2023-04-18T06:22:34.565Z,100.00
2023-04-18T06:27:06.132Z,100.00
2023-04-18T06:31:32.600Z,100.00
2023-04-18T06:35:52.018Z,100.00
2023-04-18T06:40:02.518Z,100.00
2023-04-18T06:44:33.155Z,100.00
2023-04-18T06:48:51.485Z,100.00
2023-04-18T06:53:21.448Z,100.00
2023-04-18T06:57:29.063Z,100.00
2023-04-18T07:01:30.475Z,100.00
2023-04-18T07:05:34.993Z,100.00
2023-04-18T07:09:43.187Z,100.00
2023-04-18T07:13:45.383Z,100.00
2023-04-18T07:18:03.604Z,100.00
2023-04-18T07:22:09.666Z,100.00
2023-04-18T07:26:16.780Z,100.00
2023-04-18T07:30:17.727Z,100.00
2023-04-18T07:34:24.161Z,100.00
2023-04-18T07:38:30.257Z,100.00
2023-04-18T07:42:33.028Z,100.00
2023-04-18T07:46:34.443Z,100.00
2023-04-18T07:50:44.983Z,100.00
2023-04-18T07:54:46.442Z,100.00
2023-04-18T07:58:52.689Z,100.00
2023-04-18T08:02:53.506Z,100.00
2023-04-18T08:06:53.721Z,100.00
2023-04-18T08:10:53.668Z,100.00
2023-04-18T08:14:56.040Z,100.00
2023-04-18T08:18:56.838Z,100.00
2023-04-18T08:23:07.921Z,100.00
2023-04-18T08:27:12.746Z,100.00
2023-04-18T08:31:17.136Z,100.00
2023-04-18T08:35:17.586Z,100.00
2023-04-18T08:39:25.559Z,100.00
2023-04-18T08:43:26.958Z,100.00
2023-04-18T08:47:31.401Z,100.00
2023-04-18T08:51:34.222Z,100.00
2023-04-18T08:55:35.676Z,100.00
2023-04-18T08:59:41.599Z,100.00
2023-04-18T09:03:51.950Z,100.00
2023-04-18T09:07:53.979Z,98.43
2023-04-18T09:11:54.632Z,98.82
2023-04-18T09:15:58.653Z,98.74
2023-04-18T09:20:01.768Z,98.48
2023-04-18T09:24:12.232Z,98.18
2023-04-18T09:28:24.746Z,97.91
2023-04-18T09:32:27.743Z,95.04
2023-04-18T09:36:31.534Z,97.67
2023-04-18T09:40:35.495Z,98.87
2023-04-18T09:44:35.821Z,99.47
2023-04-18T09:48:36.755Z,99.09
2023-04-18T09:52:40.370Z,98.73
2023-04-18T09:56:42.429Z,99.50
2023-04-18T10:00:44.412Z,100.00
2023-04-18T10:04:51.953Z,100.00
2023-04-18T10:08:56.856Z,100.00
2023-04-18T10:13:10.041Z,100.00
2023-04-18T10:17:10.247Z,100.00
2023-04-18T10:21:11.587Z,100.00
2023-04-18T10:25:15.034Z,98.80
2023-04-18T10:29:21.556Z,98.36
2023-04-18T10:33:33.726Z,99.11
2023-04-18T10:37:37.670Z,99.90
2023-04-18T10:41:51.517Z,99.13
2023-04-18T10:46:20.113Z,100.00
2023-04-18T10:50:32.056Z,99.03
2023-04-18T10:54:33.423Z,100.00
2023-04-18T10:58:36.725Z,98.06
2023-04-18T11:02:39.006Z,96.64
2023-04-18T11:06:50.231Z,97.02
2023-04-18T11:11:04.357Z,95.22
2023-04-18T11:15:13.094Z,94.92
2023-04-18T11:19:26.102Z,94.17
2023-04-18T11:23:27.529Z,93.11
2023-04-18T11:27:31.788Z,92.31
2023-04-18T11:31:34.612Z,93.10
2023-04-18T11:35:46.714Z,95.07
2023-04-18T11:39:50.815Z,95.86
2023-04-18T11:43:51.018Z,94.76
2023-04-18T11:47:58.430Z,91.96
2023-04-18T11:52:01.331Z,93.23
2023-04-18T11:56:06.459Z,96.20
2023-04-18T12:00:09.938Z,96.76
2023-04-18T12:04:12.124Z,97.04
2023-04-18T12:08:15.053Z,95.46
2023-04-18T12:12:16.887Z,97.76
2023-04-18T12:16:18.851Z,97.00
2023-04-18T12:20:24.843Z,96.24
2023-04-18T12:24:26.560Z,98.07
2023-04-18T12:28:28.120Z,95.42
2023-04-18T12:32:28.955Z,96.01
2023-04-18T12:36:31.529Z,94.37
2023-04-18T12:40:31.683Z,92.65
2023-04-18T12:44:32.435Z,93.97
2023-04-18T12:48:33.200Z,94.72
2023-04-18T12:52:40.573Z,95.72
2023-04-18T12:56:43.052Z,95.93
2023-04-18T13:00:47.877Z,95.23
2023-04-18T13:04:50.498Z,93.29
2023-04-18T13:09:01.152Z,93.68
2023-04-18T13:13:01.241Z,92.67
2023-04-18T13:17:01.790Z,91.28
2023-04-18T13:21:02.266Z,91.82
2023-04-18T13:25:11.181Z,91.27
2023-04-18T13:29:11.754Z,92.15
2023-04-18T13:33:15.563Z,92.24
2023-04-18T13:37:16.304Z,91.92
2023-04-18T13:41:19.315Z,92.69
2023-04-18T13:45:22.752Z,92.43
2023-04-18T13:49:32.278Z,92.08
2023-04-18T13:53:32.521Z,92.59
2023-04-18T13:57:40.338Z,91.30
2023-04-18T14:01:44.107Z,92.50
2023-04-18T14:05:44.910Z,91.86
2023-04-18T14:09:47.985Z,91.48
2023-04-18T14:13:50.815Z,90.80
2023-04-18T14:17:50.943Z,91.43
2023-04-18T14:21:51.582Z,89.45
2023-04-18T14:25:54.297Z,89.57
2023-04-18T14:30:07.137Z,88.67
2023-04-18T14:34:10.641Z,88.52
2023-04-18T14:38:20.279Z,88.72
2023-04-18T14:42:23.892Z,88.98
2023-04-18T14:46:28.461Z,87.43
2023-04-18T14:50:28.977Z,88.91
2023-04-18T14:54:29.975Z,88.59
2023-04-18T14:58:32.679Z,88.61
2023-04-18T15:02:41.100Z,89.05
2023-04-18T15:06:59.302Z,90.53
2023-04-18T15:11:06.094Z,89.29
2023-04-18T15:15:08.132Z,89.20
2023-04-18T15:19:35.428Z,87.69
2023-04-18T15:23:40.839Z,87.38
2023-04-18T15:27:51.000Z,86.83
2023-04-18T15:31:57.108Z,88.53
2023-04-18T15:35:59.527Z,89.45
2023-04-18T15:40:00.657Z,89.37
2023-04-18T15:44:00.858Z,89.63
2023-04-18T15:48:01.006Z,90.54
2023-04-18T15:52:06.639Z,90.16
2023-04-18T15:56:15.266Z,90.79
2023-04-18T16:00:45.796Z,91.47
2023-04-18T16:04:48.817Z,92.23
2023-04-18T16:08:56.762Z,92.02
2023-04-18T16:12:59.537Z,92.27
2023-04-18T16:16:59.840Z,93.63
2023-04-18T16:20:59.538Z,93.60
2023-04-18T16:25:14.422Z,93.80
2023-04-18T16:29:20.751Z,93.97
2023-04-18T16:33:27.989Z,94.58
2023-04-18T16:37:31.068Z,94.27
2023-04-18T16:41:33.634Z,94.51
2023-04-18T16:45:34.285Z,93.44
2023-04-18T16:49:36.047Z,93.07
2023-04-18T16:53:46.466Z,93.99
2023-04-18T16:57:49.110Z,93.88
2023-04-18T17:01:55.202Z,92.96
2023-04-18T17:06:03.099Z,91.00
2023-04-18T17:10:04.592Z,90.15
2023-04-18T17:14:09.320Z,87.85
2023-04-18T17:18:22.812Z,87.21
2023-04-18T17:22:24.016Z,87.14
2023-04-18T17:26:34.145Z,87.07
2023-04-18T17:30:36.651Z,87.05
2023-04-18T17:34:39.424Z,87.08
2023-04-18T17:38:40.869Z,87.08
2023-04-18T17:42:43.336Z,86.97
2023-04-18T17:46:50.522Z,87.34
2023-04-18T17:50:50.841Z,86.96
2023-04-18T17:54:51.954Z,86.32
2023-04-18T17:58:53.326Z,87.55
2023-04-18T18:02:56.928Z,89.65
2023-04-18T18:06:58.446Z,90.77
2023-04-18T18:10:58.517Z,90.43
2023-04-18T18:15:00.283Z,91.41
2023-04-18T18:19:06.874Z,91.01
2023-04-18T18:23:10.062Z,91.07
2023-04-18T18:27:16.650Z,90.93
2023-04-18T18:31:22.800Z,91.57
2023-04-18T18:35:25.663Z,92.80
2023-04-18T18:39:29.599Z,92.68
2023-04-18T18:43:29.600Z,91.95
2023-04-18T18:47:30.468Z,93.19
2023-04-18T18:51:37.040Z,92.94
2023-04-18T18:55:38.293Z,93.28
2023-04-18T18:59:38.882Z,93.67
2023-04-18T19:03:42.944Z,94.05
2023-04-18T19:07:48.206Z,94.46
2023-04-18T19:11:49.097Z,94.49
2023-04-18T19:15:49.201Z,94.68
2023-04-18T19:19:49.487Z,94.51
2023-04-18T19:23:51.694Z,95.25
2023-04-18T19:27:51.775Z,94.79
2023-04-18T19:31:51.910Z,94.89
2023-04-18T19:35:54.001Z,94.42
2023-04-18T19:39:55.349Z,94.68
2023-04-18T19:43:55.630Z,94.92
2023-04-18T19:47:55.621Z,95.52
2023-04-18T19:51:58.652Z,95.84
2023-04-18T19:56:01.673Z,97.08
2023-04-18T20:00:03.972Z,98.31
2023-04-18T20:04:11.831Z,98.98
2023-04-18T20:08:12.124Z,100.00
2023-04-18T20:12:14.970Z,100.00
2023-04-18T20:16:17.363Z,100.00
2023-04-18T20:20:17.628Z,100.00
2023-04-18T20:24:20.875Z,100.00
2023-04-18T20:28:23.196Z,100.00
2023-04-18T20:32:26.937Z,100.00
2023-04-18T20:36:29.289Z,100.00
2023-04-18T20:40:33.339Z,100.00
2023-04-18T20:44:36.507Z,100.00
2023-04-18T20:48:36.045Z,100.00
2023-04-18T20:52:36.706Z,100.00
2023-04-18T20:56:40.484Z,100.00
2023-04-18T21:00:47.020Z,100.00
2023-04-18T21:04:48.900Z,100.00
2023-04-18T21:08:50.145Z,100.00
2023-04-18T21:12:50.090Z,100.00
2023-04-18T21:16:52.291Z,100.00
2023-04-18T21:20:53.061Z,100.00
2023-04-18T21:24:55.116Z,100.00
2023-04-18T21:28:59.470Z,100.00
2023-04-18T21:33:02.025Z,100.00
2023-04-18T21:37:02.277Z,100.00
2023-04-18T21:41:02.611Z,100.00
2023-04-18T21:45:03.489Z,100.00
2023-04-18T21:49:11.822Z,100.00
2023-04-18T21:53:14.214Z,100.00
2023-04-18T21:57:16.346Z,100.00
2023-04-18T22:01:22.427Z,100.00
2023-04-18T22:05:27.882Z,100.00
2023-04-18T22:09:29.466Z,100.00
2023-04-18T22:13:32.951Z,100.00
2023-04-18T22:17:34.303Z,100.00
2023-04-18T22:21:52.497Z,100.00
2023-04-18T22:25:55.246Z,100.00
2023-04-18T22:29:55.664Z,100.00
2023-04-18T22:33:58.260Z,100.00
2023-04-18T22:37:58.395Z,100.00
2023-04-18T22:42:02.990Z,100.00
2023-04-18T22:46:06.481Z,100.00
2023-04-18T22:50:12.099Z,100.00
2023-04-18T22:54:17.939Z,100.00
2023-04-18T22:58:45.130Z,100.00
2023-04-18T23:02:50.163Z,100.00
2023-04-18T23:06:52.256Z,100.00
2023-04-18T23:10:53.211Z,100.00
2023-04-18T23:14:56.814Z,100.00
2023-04-18T23:18:57.142Z,100.00
2023-04-18T23:22:57.787Z,100.00
2023-04-18T23:26:58.634Z,100.00
2023-04-18T23:31:07.776Z,100.00
2023-04-18T23:35:09.047Z,100.00
2023-04-18T23:39:15.007Z,100.00
2023-04-18T23:43:18.609Z,100.00
2023-04-18T23:47:22.520Z,100.00
2023-04-18T23:51:26.303Z,100.00
2023-04-18T23:55:36.202Z,100.00
2023-04-18T23:59:38.070Z,100.00
